Weather History for Thedford, NE

Change the Weather History Date:

Saturday, February 2, 2013

  Actual Average (KLBF) Record (KLBF)
Temperature  
Mean Temperature 40 °F 26 °F  
Max Temperature 49 °F 40 °F 69 °F (1962)
Min Temperature 30 °F 12 °F -18 °F (1883)
Degree Days  
Heating Degree Days 26 39  
Month to date heating degree days 78  
Since 1 July heating degree days 4098  
Cooling Degree Days 0 0  
Month to date cooling degree days 0  
Year to date cooling degree days 0  
Moisture  
Dew Point 26 °F    
Average Humidity 66    
Maximum Humidity 90    
Minimum Humidity 33    
Precipitation  
Precipitation 0.00 in 0.01 in 0.44 in (1920)
Month to date precipitation 0.02  
Year to date precipitation 0.36  
Snow  
Snow 0.00 in 0.20 in 3.70 in (1920)
Month to date snowfall 0.4  
Since 1 July snowfall 16.0  
Snow Depth -    
Sea Level Pressure  
Sea Level Pressure 30.14 in    
Wind  
Wind Speed 12 mph (WNW)    
Max Wind Speed 30 mph    
Max Gust Speed 41 mph    
Visibility 10 miles    
Events      
T = Trace of Precipitation, MM = Missing Value Source: NWS Daily Summary

Daily Weather History Graph

Daily Weather History Graph

Search for Another Location

Airport:

Trip Planner

Search our weather history database for the weather conditions in past years. The results will help you decide how hot, cold, wet, or windy it might be!

Date:

Astronomy

Feb. 02, 2013 Rise Set
Actual Time 7:53 AM CST 5:58 PM CST
Civil Twilight 7:24 AM CST 6:28 PM CST
Nautical Twilight 6:50 AM CST 7:01 PM CST
Astronomical Twilight 6:18 AM CST 7:34 PM CST
Moon 12:14 AM CST (2/2) 10:57 AM CST (2/2)
Length of Visible Light 11h 04m
Length of Day
10h 05m
Waning Gibbous, 59% of the Moon is Illuminated
Feb 2
Waning Gibbous
Feb 3
Last Quarter
Feb 10
New
Feb 17
First Quarter
Feb 25
Full

Hourly Weather History & Observations

Time (CST) Temp. Windchill Dew Point Humidity Pressure Visibility Wind Dir Wind Speed Gust Speed Precip Events Conditions
12:15 AM 32.9 °F 25.9 °F 30.0 °F 89% 30.10 in 10.0 mi West 8.1 mph - N/A   Overcast
12:35 AM 32.7 °F 26.4 °F 29.7 °F 88% 30.10 in 10.0 mi WNW 6.9 mph - N/A   Overcast
12:55 AM 33.4 °F 25.9 °F 30.2 °F 88% 30.10 in 10.0 mi WNW 9.2 mph - N/A   Overcast
1:15 AM 34.0 °F 26.6 °F 30.7 °F 88% 30.09 in 10.0 mi WNW 9.2 mph - N/A   Overcast
1:35 AM 34.3 °F 27.7 °F 31.1 °F 88% 30.08 in 10.0 mi West 8.1 mph - N/A   Overcast
1:55 AM 33.8 °F 27.7 °F 30.6 °F 88% 30.10 in 10.0 mi WNW 6.9 mph - N/A   Scattered Clouds
2:15 AM 33.3 °F 25.1 °F 30.6 °F 90% 30.10 in 10.0 mi West 10.4 mph - N/A   Clear
2:35 AM 33.4 °F 25.9 °F 30.2 °F 88% 30.10 in 10.0 mi West 9.2 mph - N/A   Scattered Clouds
3:15 AM 34.7 °F 26.9 °F 29.8 °F 82% 30.10 in 10.0 mi West 10.4 mph - N/A   Overcast
3:35 AM 34.0 °F 26.6 °F 29.3 °F 83% 30.11 in 10.0 mi West 9.2 mph - N/A   Scattered Clouds
3:55 AM 32.9 °F 24.7 °F 28.8 °F 85% 30.11 in 10.0 mi West 10.4 mph - N/A   Clear
4:15 AM 32.9 °F 24.7 °F 28.9 °F 85% 30.11 in 10.0 mi WNW 10.4 mph - N/A   Scattered Clouds
4:35 AM 32.2 °F 25.0 °F 28.6 °F 87% 30.12 in 10.0 mi WNW 8.1 mph - N/A   Clear
4:55 AM 33.1 °F 25.5 °F 29.1 °F 85% 30.12 in 10.0 mi NW 9.2 mph - N/A   Clear
5:15 AM 33.3 °F 25.1 °F 29.3 °F 85% 30.12 in 10.0 mi NW 10.4 mph - N/A   Clear
5:35 AM 33.3 °F 25.7 °F 29.1 °F 85% 30.13 in 10.0 mi NW 9.2 mph - N/A   Clear
6:15 AM 32.0 °F 24.8 °F 28.2 °F 86% 30.14 in 10.0 mi WNW 8.1 mph - N/A   Clear
6:35 AM 32.0 °F 25.6 °F 28.2 °F 86% 30.14 in 10.0 mi WNW 6.9 mph - N/A   Clear
6:55 AM 30.6 °F 23.1 °F 27.5 °F 88% 30.14 in 10.0 mi West 8.1 mph - N/A   Clear
7:15 AM 31.1 °F 24.5 °F 28.0 °F 88% 30.14 in 10.0 mi WNW 6.9 mph - N/A   Clear
7:35 AM 31.1 °F 23.1 °F 28.0 °F 88% 30.13 in 10.0 mi West 9.2 mph - N/A   Clear
7:55 AM 32.0 °F 22.1 °F 28.4 °F 87% 30.14 in 10.0 mi WNW 13.8 mph 19.6 mph N/A   Clear
8:15 AM 32.5 °F 22.7 °F 28.0 °F 83% 30.14 in 10.0 mi West 13.8 mph - N/A   Clear
8:35 AM 33.1 °F 24.4 °F 27.9 °F 81% 30.15 in 10.0 mi WNW 11.5 mph 18.4 mph N/A   Clear
8:55 AM 34.0 °F 24.6 °F 28.0 °F 79% 30.14 in 10.0 mi WNW 13.8 mph 19.6 mph N/A   Clear
9:15 AM 35.6 °F 25.9 °F 28.4 °F 75% 30.15 in 10.0 mi WNW 16.1 mph 21.9 mph N/A   Clear
9:35 AM 37.0 °F 27.7 °F 28.4 °F 71% 30.14 in 10.0 mi WNW 16.1 mph 25.3 mph N/A   Clear
9:55 AM 38.5 °F 29.2 °F 28.6 °F 68% 30.14 in 10.0 mi WNW 17.3 mph 24.2 mph N/A   Clear
10:15 AM 40.3 °F 32.6 °F 28.9 °F 64% 30.14 in 10.0 mi WNW 13.8 mph 17.3 mph N/A   Clear
10:35 AM 41.5 °F 33.5 °F 28.8 °F 60% 30.15 in 10.0 mi NW 16.1 mph 21.9 mph N/A   Clear
10:55 AM 42.6 °F 34.9 °F 28.6 °F 58% 30.16 in 10.0 mi WNW 16.1 mph 21.9 mph N/A   Clear
11:15 AM 43.5 °F 35.8 °F 28.4 °F 55% 30.16 in 10.0 mi WNW 17.3 mph 24.2 mph N/A   Clear
11:35 AM 44.4 °F 37.5 °F 28.2 °F 53% 30.16 in 10.0 mi WNW 15.0 mph 28.8 mph N/A   Clear
11:55 AM 45.0 °F 36.6 °F 26.8 °F 49% 30.16 in 10.0 mi WNW 21.9 mph 32.2 mph N/A   Clear
12:15 PM 46.6 °F - 25.9 °F 44% 30.15 in 10.0 mi WNW 19.6 mph 32.2 mph N/A   Clear
12:35 PM 47.7 °F - 25.2 °F 41% 30.13 in 10.0 mi NW 19.6 mph 27.6 mph N/A   Clear
12:55 PM 48.9 °F - 22.6 °F 36% 30.12 in 10.0 mi WNW 24.2 mph 35.7 mph N/A   Clear
1:15 PM 48.6 °F - 21.9 °F 35% 30.12 in 10.0 mi WNW 25.3 mph 36.8 mph N/A   Clear
1:35 PM 49.1 °F - 21.7 °F 34% 30.11 in 10.0 mi WNW 23.0 mph 34.5 mph N/A   Clear
1:55 PM 49.1 °F - 23.7 °F 37% 30.11 in 10.0 mi WNW 24.2 mph 35.7 mph N/A   Clear
2:15 PM 48.6 °F - 22.8 °F 36% 30.11 in 10.0 mi WNW 29.9 mph 40.3 mph N/A   Clear
2:35 PM 48.7 °F - 20.8 °F 33% 30.11 in 10.0 mi WNW 28.8 mph 41.4 mph N/A   Clear
2:55 PM 48.9 °F - 21.0 °F 33% 30.11 in 10.0 mi WNW 21.9 mph 38.0 mph N/A   Clear
3:15 PM 48.7 °F - 21.7 °F 35% 30.12 in 10.0 mi WNW 27.6 mph 38.0 mph N/A   Clear
3:35 PM 48.9 °F - 21.2 °F 34% 30.12 in 10.0 mi NW 24.2 mph 38.0 mph N/A   Clear
3:55 PM 48.6 °F - 21.0 °F 34% 30.13 in 10.0 mi NW 26.5 mph 34.5 mph N/A   Clear
4:15 PM 48.4 °F - 21.6 °F 35% 30.13 in 10.0 mi WNW 26.5 mph 35.7 mph N/A   Clear
4:35 PM 47.7 °F - 22.1 °F 37% 30.13 in 10.0 mi WNW 20.7 mph 32.2 mph N/A   Clear
4:55 PM 46.8 °F - 22.6 °F 39% 30.13 in 10.0 mi WNW 21.9 mph 33.4 mph N/A   Clear
5:15 PM 46.0 °F 38.5 °F 23.5 °F 41% 30.13 in 10.0 mi WNW 19.6 mph 27.6 mph N/A   Clear
5:35 PM 44.6 °F 38.1 °F 23.9 °F 44% 30.14 in 10.0 mi WNW 13.8 mph 20.7 mph N/A   Clear
5:55 PM 42.8 °F 36.2 °F 24.8 °F 49% 30.14 in 10.0 mi WNW 12.7 mph 19.6 mph N/A   Clear
6:15 PM 41.2 °F 34.5 °F 25.0 °F 53% 30.15 in 10.0 mi WNW 11.5 mph 17.3 mph N/A   Clear
6:35 PM 40.1 °F 32.0 °F 25.2 °F 55% 30.15 in 10.0 mi WNW 15.0 mph - N/A   Clear
6:55 PM 39.4 °F 32.7 °F 25.2 °F 57% 30.15 in 10.0 mi WNW 10.4 mph - N/A   Clear
7:15 PM 38.1 °F 31.7 °F 25.3 °F 60% 30.16 in 10.0 mi WNW 9.2 mph - N/A   Clear
7:35 PM 37.9 °F 30.5 °F 25.5 °F 61% 30.16 in 10.0 mi WNW 11.5 mph 16.1 mph N/A   Clear
7:55 PM 36.7 °F 29.9 °F 25.5 °F 64% 30.17 in 10.0 mi NW 9.2 mph - N/A   Clear
8:15 PM 37.4 °F 28.5 °F 25.5 °F 62% 30.17 in 10.0 mi NW 15.0 mph 18.4 mph N/A   Clear
8:35 PM 37.2 °F 29.6 °F 25.5 °F 63% 30.19 in 10.0 mi WNW 11.5 mph - N/A   Clear
8:55 PM 35.6 °F 29.2 °F 25.5 °F 67% 30.19 in 10.0 mi WNW 8.1 mph - N/A   Clear
9:15 PM 34.7 °F 27.5 °F 25.5 °F 69% 30.19 in 10.0 mi WNW 9.2 mph - N/A   Clear
9:35 PM 33.3 °F 26.4 °F 25.5 °F 73% 30.20 in 10.0 mi WNW 8.1 mph - N/A   Clear
9:55 PM 31.5 °F 26.8 °F 24.8 °F 76% 30.21 in 10.0 mi West 4.6 mph - N/A   Clear
10:15 PM 31.1 °F - 24.6 °F 77% 30.21 in 10.0 mi Calm Calm - N/A   Clear
10:35 PM 31.1 °F 24.5 °F 24.6 °F 77% 30.21 in 10.0 mi West 6.9 mph - N/A   Clear
11:15 PM 31.8 °F 23.9 °F 25.3 °F 77% 30.22 in 10.0 mi West 9.2 mph - N/A   Clear
11:35 PM 32.0 °F 24.8 °F 25.2 °F 76% 30.22 in 10.0 mi West 8.1 mph - N/A   Clear
11:55 PM 30.7 °F 27.3 °F 24.4 °F 77% 30.22 in 10.0 mi NW 3.5 mph - N/A   Clear